sensor_id;sensor_type;location;lat;lon;timestamp;pressure;altitude;pressure_sealevel;temperature;humidity
69535;BME280;56754;51.568;5.048;2023-03-03T00:02:02;102374.69;;;6.92;62.67
69535;BME280;56754;51.568;5.048;2023-03-03T00:04:27;102378.38;;;6.91;62.65
69535;BME280;56754;51.568;5.048;2023-03-03T00:06:52;102382.09;;;6.90;63.06
69535;BME280;56754;51.568;5.048;2023-03-03T00:09:18;102382.31;;;6.89;63.06
69535;BME280;56754;51.568;5.048;2023-03-03T00:11:54;102385.25;;;6.87;62.60
69535;BME280;56754;51.568;5.048;2023-03-03T00:14:31;102378.28;;;6.86;63.31
69535;BME280;56754;51.568;5.048;2023-03-03T00:17:00;102380.41;;;6.84;63.11
69535;BME280;56754;51.568;5.048;2023-03-03T00:19:26;102382.50;;;6.82;63.17
69535;BME280;56754;51.568;5.048;2023-03-03T00:21:52;102394.72;;;6.83;62.95
69535;BME280;56754;51.568;5.048;2023-03-03T00:24:24;102392.91;;;6.83;63.96
69535;BME280;56754;51.568;5.048;2023-03-03T00:27:01;102391.28;;;6.82;63.00
69535;BME280;56754;51.568;5.048;2023-03-03T00:29:45;102388.06;;;6.80;62.75
69535;BME280;56754;51.568;5.048;2023-03-03T00:34:36;102381.41;;;6.78;63.11
69535;BME280;56754;51.568;5.048;2023-03-03T00:37:02;102393.63;;;6.79;63.21
69535;BME280;56754;51.568;5.048;2023-03-03T00:39:37;102389.38;;;6.78;63.54
69535;BME280;56754;51.568;5.048;2023-03-03T00:42:16;102383.25;;;6.77;63.34
69535;BME280;56754;51.568;5.048;2023-03-03T00:47:23;102383.50;;;6.76;64.13
69535;BME280;56754;51.568;5.048;2023-03-03T00:49:49;102391.69;;;6.74;63.75
69535;BME280;56754;51.568;5.048;2023-03-03T00:52:16;102397.84;;;6.75;64.36
69535;BME280;56754;51.568;5.048;2023-03-03T00:54:43;102394.34;;;6.74;63.70
69535;BME280;56754;51.568;5.048;2023-03-03T00:57:09;102388.22;;;6.74;63.93
69535;BME280;56754;51.568;5.048;2023-03-03T00:59:34;102389.28;;;6.73;63.14
69535;BME280;56754;51.568;5.048;2023-03-03T01:01:59;102390.34;;;6.72;63.56
69535;BME280;56754;51.568;5.048;2023-03-03T01:04:25;102397.25;;;6.73;64.23
69535;BME280;56754;51.568;5.048;2023-03-03T01:06:50;102400.72;;;6.73;64.63
69535;BME280;56754;51.568;5.048;2023-03-03T01:09:15;102400.97;;;6.72;63.92
69535;BME280;56754;51.568;5.048;2023-03-03T01:11:41;102398.31;;;6.72;64.12
69535;BME280;56754;51.568;5.048;2023-03-03T01:14:06;102400.97;;;6.72;64.17
69535;BME280;56754;51.568;5.048;2023-03-03T01:16:33;102399.91;;;6.73;64.61
69535;BME280;56754;51.568;5.048;2023-03-03T01:18:59;102400.72;;;6.73;64.28
69535;BME280;56754;51.568;5.048;2023-03-03T01:21:25;102407.63;;;6.74;64.73
69535;BME280;56754;51.568;5.048;2023-03-03T01:23:51;102406.59;;;6.75;64.65
69535;BME280;56754;51.568;5.048;2023-03-03T01:26:16;102405.31;;;6.78;64.06
69535;BME280;56754;51.568;5.048;2023-03-03T01:28:42;102406.34;;;6.77;64.48
69535;BME280;56754;51.568;5.048;2023-03-03T01:31:08;102405.31;;;6.78;64.63
69535;BME280;56754;51.568;5.048;2023-03-03T01:33:35;102405.31;;;6.78;64.48
69535;BME280;56754;51.568;5.048;2023-03-03T01:36:02;102405.06;;;6.79;64.19
69535;BME280;56754;51.568;5.048;2023-03-03T01:38:27;102397.09;;;6.79;64.43
69535;BME280;56754;51.568;5.048;2023-03-03T01:40:54;102410.38;;;6.79;64.59
69535;BME280;56754;51.568;5.048;2023-03-03T01:43:20;102407.47;;;6.81;64.62
69535;BME280;56754;51.568;5.048;2023-03-03T01:48:22;102417.63;;;6.84;64.89
69535;BME280;56754;51.568;5.048;2023-03-03T01:51:19;102413.91;;;6.85;65.09
69535;BME280;56754;51.568;5.048;2023-03-03T01:53:58;102417.13;;;6.87;65.08
69535;BME280;56754;51.568;5.048;2023-03-03T01:56:25;102417.13;;;6.87;64.67
69535;BME280;56754;51.568;5.048;2023-03-03T01:59:13;102411.81;;;6.87;64.24
69535;BME280;56754;51.568;5.048;2023-03-03T02:01:41;102421.66;;;6.87;64.56
69535;BME280;56754;51.568;5.048;2023-03-03T02:04:08;102411.03;;;6.87;64.26
69535;BME280;56754;51.568;5.048;2023-03-03T02:06:36;102406.72;;;6.86;64.86
69535;BME280;56754;51.568;5.048;2023-03-03T02:09:04;102410.19;;;6.86;64.46
69535;BME280;56754;51.568;5.048;2023-03-03T02:11:34;102405.94;;;6.85;64.82
69535;BME280;56754;51.568;5.048;2023-03-03T02:14:00;102401.41;;;6.86;64.29
69535;BME280;56754;51.568;5.048;2023-03-03T02:16:27;102397.72;;;6.87;64.39
69535;BME280;56754;51.568;5.048;2023-03-03T02:18:53;102406.50;;;6.87;64.43
69535;BME280;56754;51.568;5.048;2023-03-03T02:21:20;102400.13;;;6.88;64.51
69535;BME280;56754;51.568;5.048;2023-03-03T02:24:17;102407.06;;;6.89;64.32
69535;BME280;56754;51.568;5.048;2023-03-03T02:26:47;102409.72;;;6.89;64.19
69535;BME280;56754;51.568;5.048;2023-03-03T02:29:12;102408.91;;;6.89;64.21
69535;BME280;56754;51.568;5.048;2023-03-03T02:31:38;102415.03;;;6.89;64.20
69535;BME280;56754;51.568;5.048;2023-03-03T02:34:04;102409.72;;;6.89;64.35
69535;BME280;56754;51.568;5.048;2023-03-03T02:36:34;102406.81;;;6.91;64.13
69535;BME280;56754;51.568;5.048;2023-03-03T02:42:02;102397.25;;;6.90;64.66
69535;BME280;56754;51.568;5.048;2023-03-03T02:44:32;102406.56;;;6.92;64.15
69535;BME280;56754;51.568;5.048;2023-03-03T02:46:58;102405.53;;;6.93;64.29
69535;BME280;56754;51.568;5.048;2023-03-03T02:49:27;102399.41;;;6.93;64.22
69535;BME280;56754;51.568;5.048;2023-03-03T02:51:53;102402.88;;;6.93;64.20
69535;BME280;56754;51.568;5.048;2023-03-03T02:54:20;102404.47;;;6.94;64.94
69535;BME280;56754;51.568;5.048;2023-03-03T02:56:46;102404.22;;;6.96;64.03
69535;BME280;56754;51.568;5.048;2023-03-03T02:59:12;102419.38;;;6.95;63.96
69535;BME280;56754;51.568;5.048;2023-03-03T03:01:38;102406.31;;;6.94;64.59
69535;BME280;56754;51.568;5.048;2023-03-03T03:04:23;102402.06;;;6.93;63.85
69535;BME280;56754;51.568;5.048;2023-03-03T03:06:49;102418.00;;;6.93;64.27
69535;BME280;56754;51.568;5.048;2023-03-03T03:09:15;102415.09;;;6.94;64.89
69535;BME280;56754;51.568;5.048;2023-03-03T03:11:40;102405.03;;;6.96;64.38
69535;BME280;56754;51.568;5.048;2023-03-03T03:14:08;102406.09;;;6.95;64.27
69535;BME280;56754;51.568;5.048;2023-03-03T03:16:33;102407.13;;;6.94;64.64
69535;BME280;56754;51.568;5.048;2023-03-03T03:19:00;102409.53;;;6.96;64.42
69535;BME280;56754;51.568;5.048;2023-03-03T03:21:26;102410.34;;;6.96;64.12
69535;BME280;56754;51.568;5.048;2023-03-03T03:23:52;102404.47;;;6.94;63.91
69535;BME280;56754;51.568;5.048;2023-03-03T03:26:17;102416.16;;;6.93;64.45
69535;BME280;56754;51.568;5.048;2023-03-03T03:28:43;102417.22;;;6.92;63.79
69535;BME280;56754;51.568;5.048;2023-03-03T03:31:09;102419.88;;;6.92;64.43
69535;BME280;56754;51.568;5.048;2023-03-03T03:33:34;102420.66;;;6.93;63.81
69535;BME280;56754;51.568;5.048;2023-03-03T03:36:01;102425.97;;;6.93;64.02
69535;BME280;56754;51.568;5.048;2023-03-03T03:38:27;102418.81;;;6.93;63.72
69535;BME280;56754;51.568;5.048;2023-03-03T03:40:53;102416.94;;;6.94;63.80
69535;BME280;56754;51.568;5.048;2023-03-03T03:43:18;102423.31;;;6.93;63.91
69535;BME280;56754;51.568;5.048;2023-03-03T03:45:44;102420.66;;;6.93;63.91
69535;BME280;56754;51.568;5.048;2023-03-03T03:48:10;102420.66;;;6.93;63.98
69535;BME280;56754;51.568;5.048;2023-03-03T03:50:35;102425.50;;;6.96;63.96
69535;BME280;56754;51.568;5.048;2023-03-03T03:53:01;102419.38;;;6.95;63.64
69535;BME280;56754;51.568;5.048;2023-03-03T03:55:26;102428.38;;;6.94;63.86
69535;BME280;56754;51.568;5.048;2023-03-03T03:57:51;102430.25;;;6.94;63.73
69535;BME280;56754;51.568;5.048;2023-03-03T04:00:17;102428.88;;;6.91;63.60
69535;BME280;56754;51.568;5.048;2023-03-03T04:02:42;102429.44;;;6.93;63.25
69535;BME280;56754;51.568;5.048;2023-03-03T04:05:08;102430.50;;;6.92;63.69
69535;BME280;56754;51.568;5.048;2023-03-03T04:07:34;102429.44;;;6.93;63.54
69535;BME280;56754;51.568;5.048;2023-03-03T04:09:59;102423.31;;;6.93;64.12
69535;BME280;56754;51.568;5.048;2023-03-03T04:12:24;102432.91;;;6.94;64.34
69535;BME280;56754;51.568;5.048;2023-03-03T04:14:50;102439.59;;;6.96;63.31
69535;BME280;56754;51.568;5.048;2023-03-03T04:17:20;102433.69;;;6.94;63.48
69535;BME280;56754;51.568;5.048;2023-03-03T04:19:45;102433.69;;;6.94;63.66
69535;BME280;56754;51.568;5.048;2023-03-03T04:22:11;102433.47;;;6.96;63.44
69535;BME280;56754;51.568;5.048;2023-03-03T04:24:37;102437.41;;;6.93;63.11
69535;BME280;56754;51.568;5.048;2023-03-03T04:27:02;102426.78;;;6.93;63.89
69535;BME280;56754;51.568;5.048;2023-03-03T04:29:28;102437.41;;;6.93;63.33
69535;BME280;56754;51.568;5.048;2023-03-03T04:31:53;102435.81;;;6.92;63.42
69535;BME280;56754;51.568;5.048;2023-03-03T04:34:18;102437.66;;;6.92;63.39
69535;BME280;56754;51.568;5.048;2023-03-03T04:36:44;102444.81;;;6.91;62.67
69535;BME280;56754;51.568;5.048;2023-03-03T04:39:09;102446.69;;;6.91;63.60
69535;BME280;56754;51.568;5.048;2023-03-03T04:41:34;102445.63;;;6.92;63.70
69535;BME280;56754;51.568;5.048;2023-03-03T04:44:00;102448.28;;;6.92;63.73
69535;BME280;56754;51.568;5.048;2023-03-03T04:46:25;102444.81;;;6.91;63.81
69535;BME280;56754;51.568;5.048;2023-03-03T04:48:50;102450.13;;;6.91;63.69
69535;BME280;56754;51.568;5.048;2023-03-03T04:51:16;102444.81;;;6.91;64.22
69535;BME280;56754;51.568;5.048;2023-03-03T04:53:41;102448.06;;;6.93;64.02
69535;BME280;56754;51.568;5.048;2023-03-03T04:56:06;102446.44;;;6.92;63.30
69535;BME280;56754;51.568;5.048;2023-03-03T04:58:32;102448.28;;;6.92;63.01
69535;BME280;56754;51.568;5.048;2023-03-03T05:00:57;102447.25;;;6.93;63.20
69535;BME280;56754;51.568;5.048;2023-03-03T05:03:23;102454.44;;;6.92;63.70
69535;BME280;56754;51.568;5.048;2023-03-03T05:05:49;102448.28;;;6.92;63.55
69535;BME280;56754;51.568;5.048;2023-03-03T05:08:14;102450.13;;;6.91;63.39
69535;BME280;56754;51.568;5.048;2023-03-03T05:10:39;102449.34;;;6.91;63.21
69535;BME280;56754;51.568;5.048;2023-03-03T05:13:06;102450.13;;;6.91;63.17
69535;BME280;56754;51.568;5.048;2023-03-03T05:15:31;102450.13;;;6.91;63.17
69535;BME280;56754;51.568;5.048;2023-03-03T05:17:56;102454.66;;;6.91;63.33
69535;BME280;56754;51.568;5.048;2023-03-03T05:20:23;102459.97;;;6.91;63.92
69535;BME280;56754;51.568;5.048;2023-03-03T05:22:49;102452.78;;;6.91;63.17
69535;BME280;56754;51.568;5.048;2023-03-03T05:25:14;102459.16;;;6.90;63.93
69535;BME280;56754;51.568;5.048;2023-03-03T05:27:39;102459.16;;;6.90;63.17
69535;BME280;56754;51.568;5.048;2023-03-03T05:30:05;102466.09;;;6.91;62.86
69535;BME280;56754;51.568;5.048;2023-03-03T05:32:31;102459.97;;;6.91;63.00
69535;BME280;56754;51.568;5.048;2023-03-03T05:34:57;102461.56;;;6.92;62.75
69535;BME280;56754;51.568;5.048;2023-03-03T05:37:22;102462.63;;;6.91;63.34
69535;BME280;56754;51.568;5.048;2023-03-03T05:39:48;102464.22;;;6.92;62.95
69535;BME280;56754;51.568;5.048;2023-03-03T05:42:13;102465.28;;;6.91;62.77
69535;BME280;56754;51.568;5.048;2023-03-03T05:44:38;102465.28;;;6.91;63.07
69535;BME280;56754;51.568;5.048;2023-03-03T05:47:04;102471.41;;;6.91;63.39
69535;BME280;56754;51.568;5.048;2023-03-03T05:49:29;102468.75;;;6.91;63.04
69535;BME280;56754;51.568;5.048;2023-03-03T05:51:54;102475.91;;;6.91;62.82
69535;BME280;56754;51.568;5.048;2023-03-03T05:54:20;102472.19;;;6.92;63.01
69535;BME280;56754;51.568;5.048;2023-03-03T05:56:45;102472.19;;;6.92;63.29
69535;BME280;56754;51.568;5.048;2023-03-03T05:59:10;102477.53;;;6.92;63.08
69535;BME280;56754;51.568;5.048;2023-03-03T06:01:35;102472.19;;;6.92;63.00
69535;BME280;56754;51.568;5.048;2023-03-03T06:04:01;102482.03;;;6.91;63.62
69535;BME280;56754;51.568;5.048;2023-03-03T06:06:26;102479.38;;;6.91;63.19
69535;BME280;56754;51.568;5.048;2023-03-03T06:08:51;102482.03;;;6.91;63.17
69535;BME280;56754;51.568;5.048;2023-03-03T06:11:16;102476.72;;;6.91;63.19
69535;BME280;56754;51.568;5.048;2023-03-03T06:13:42;102476.72;;;6.91;63.44
69535;BME280;56754;51.568;5.048;2023-03-03T06:16:07;102486.31;;;6.92;63.09
69535;BME280;56754;51.568;5.048;2023-03-03T06:18:33;102483.66;;;6.92;62.89
69535;BME280;56754;51.568;5.048;2023-03-03T06:20:58;102487.34;;;6.91;62.98
69535;BME280;56754;51.568;5.048;2023-03-03T06:23:23;102486.31;;;6.92;63.12
69535;BME280;56754;51.568;5.048;2023-03-03T06:25:49;102501.22;;;6.93;63.00
69535;BME280;56754;51.568;5.048;2023-03-03T06:28:14;102497.75;;;6.93;62.89
69535;BME280;56754;51.568;5.048;2023-03-03T06:30:40;102499.63;;;6.92;62.95
69535;BME280;56754;51.568;5.048;2023-03-03T06:33:05;102509.19;;;6.93;62.79
69535;BME280;56754;51.568;5.048;2023-03-03T06:35:30;102503.31;;;6.91;62.98
69535;BME280;56754;51.568;5.048;2023-03-03T06:37:56;102502.50;;;6.91;62.53
69535;BME280;56754;51.568;5.048;2023-03-03T06:40:21;102508.63;;;6.91;62.82
69535;BME280;56754;51.568;5.048;2023-03-03T06:42:46;102513.13;;;6.91;62.54
69535;BME280;56754;51.568;5.048;2023-03-03T06:45:12;102520.06;;;6.92;63.31
69535;BME280;56754;51.568;5.048;2023-03-03T06:47:38;102515.56;;;6.92;62.74
69535;BME280;56754;51.568;5.048;2023-03-03T06:50:04;102519.03;;;6.93;62.86
69535;BME280;56754;51.568;5.048;2023-03-03T06:52:29;102533.13;;;6.93;62.61
69535;BME280;56754;51.568;5.048;2023-03-03T06:54:57;102527.78;;;6.93;62.79
69535;BME280;56754;51.568;5.048;2023-03-03T06:57:32;102535.78;;;6.93;62.91
69535;BME280;56754;51.568;5.048;2023-03-03T07:00:18;102538.44;;;6.93;62.58
69535;BME280;56754;51.568;5.048;2023-03-03T07:02:43;102528.59;;;6.94;62.38
69535;BME280;56754;51.568;5.048;2023-03-03T07:05:14;102534.72;;;6.94;62.38
69535;BME280;56754;51.568;5.048;2023-03-03T07:07:39;102536.34;;;6.95;62.58
69535;BME280;56754;51.568;5.048;2023-03-03T07:10:12;102535.28;;;6.96;62.57
69535;BME280;56754;51.568;5.048;2023-03-03T07:12:40;102534.50;;;6.96;62.21
69535;BME280;56754;51.568;5.048;2023-03-03T07:15:22;102542.47;;;6.96;62.50
69535;BME280;56754;51.568;5.048;2023-03-03T07:17:50;102543.25;;;6.96;61.86
69535;BME280;56754;51.568;5.048;2023-03-03T07:20:22;102543.25;;;6.96;62.12
69535;BME280;56754;51.568;5.048;2023-03-03T07:22:48;102542.47;;;6.96;62.24
69535;BME280;56754;51.568;5.048;2023-03-03T07:25:26;102543.25;;;6.96;62.15
69535;BME280;56754;51.568;5.048;2023-03-03T07:27:58;102548.31;;;6.98;62.40
69535;BME280;56754;51.568;5.048;2023-03-03T07:30:26;102556.28;;;6.98;62.33
69535;BME280;56754;51.568;5.048;2023-03-03T07:32:55;102557.94;;;6.99;62.52
69535;BME280;56754;51.568;5.048;2023-03-03T07:37:58;102561.97;;;7.01;62.21
69535;BME280;56754;51.568;5.048;2023-03-03T07:42:56;102568.06;;;7.02;62.02
69535;BME280;56754;51.568;5.048;2023-03-03T07:45:26;102574.19;;;7.02;62.06
69535;BME280;56754;51.568;5.048;2023-03-03T07:50:33;102574.75;;;7.04;62.00
69535;BME280;56754;51.568;5.048;2023-03-03T07:53:00;102574.50;;;7.06;61.77
69535;BME280;56754;51.568;5.048;2023-03-03T07:55:34;102580.41;;;7.08;61.80
69535;BME280;56754;51.568;5.048;2023-03-03T08:03:38;102582.56;;;7.11;61.59
69535;BME280;56754;51.568;5.048;2023-03-03T08:06:26;102587.88;;;7.11;61.92
69535;BME280;56754;51.568;5.048;2023-03-03T08:09:00;102590.28;;;7.13;61.67
69535;BME280;56754;51.568;5.048;2023-03-03T08:11:26;102591.91;;;7.14;62.13
69535;BME280;56754;51.568;5.048;2023-03-03T08:13:51;102584.75;;;7.14;61.74
69535;BME280;56754;51.568;5.048;2023-03-03T08:19:01;102595.69;;;7.18;61.98
69535;BME280;56754;51.568;5.048;2023-03-03T08:21:27;102598.13;;;7.19;61.75
69535;BME280;56754;51.568;5.048;2023-03-03T08:23:53;102598.13;;;7.19;61.68
69535;BME280;56754;51.568;5.048;2023-03-03T08:26:19;102603.19;;;7.21;61.65
69535;BME280;56754;51.568;5.048;2023-03-03T08:28:45;102604.00;;;7.21;61.76
69535;BME280;56754;51.568;5.048;2023-03-03T08:31:11;102605.63;;;7.22;61.63
69535;BME280;56754;51.568;5.048;2023-03-03T08:33:37;102606.41;;;7.23;61.81
69535;BME280;56754;51.568;5.048;2023-03-03T08:36:03;102607.00;;;7.25;61.93
69535;BME280;56754;51.568;5.048;2023-03-03T08:38:29;102608.59;;;7.26;61.74
69535;BME280;56754;51.568;5.048;2023-03-03T08:40:54;102614.50;;;7.28;61.53
69535;BME280;56754;51.568;5.048;2023-03-03T08:43:19;102615.03;;;7.30;61.80
69535;BME280;56754;51.568;5.048;2023-03-03T08:45:46;102609.72;;;7.30;61.39
69535;BME280;56754;51.568;5.048;2023-03-03T08:48:13;102614.81;;;7.32;61.61
69535;BME280;56754;51.568;5.048;2023-03-03T08:50:39;102613.50;;;7.34;61.46
69535;BME280;56754;51.568;5.048;2023-03-03T08:53:04;102616.97;;;7.35;61.46
69535;BME280;56754;51.568;5.048;2023-03-03T08:55:30;102614.31;;;7.35;61.57
69535;BME280;56754;51.568;5.048;2023-03-03T08:57:55;102619.38;;;7.36;61.49
69535;BME280;56754;51.568;5.048;2023-03-03T09:00:21;102627.94;;;7.38;61.05
69535;BME280;56754;51.568;5.048;2023-03-03T09:02:48;102625.84;;;7.40;61.59
69535;BME280;56754;51.568;5.048;2023-03-03T09:05:13;102626.38;;;7.42;61.41
69535;BME280;56754;51.568;5.048;2023-03-03T09:07:40;102635.72;;;7.45;61.32
69535;BME280;56754;51.568;5.048;2023-03-03T09:10:06;102632.84;;;7.46;61.17
69535;BME280;56754;51.568;5.048;2023-03-03T09:12:38;102632.09;;;7.51;61.38
69535;BME280;56754;51.568;5.048;2023-03-03T09:15:22;102637.19;;;7.52;61.42
69535;BME280;56754;51.568;5.048;2023-03-03T09:17:50;102633.47;;;7.53;61.30
69535;BME280;56754;51.568;5.048;2023-03-03T09:20:37;102639.94;;;7.58;61.34
69535;BME280;56754;51.568;5.048;2023-03-03T09:23:35;102636.78;;;7.61;61.27
69535;BME280;56754;51.568;5.048;2023-03-03T09:28:45;102638.69;;;7.65;61.21
69535;BME280;56754;51.568;5.048;2023-03-03T09:31:23;102643.78;;;7.67;61.02
69535;BME280;56754;51.568;5.048;2023-03-03T09:33:49;102639.84;;;7.69;61.21
69535;BME280;56754;51.568;5.048;2023-03-03T09:36:28;102635.88;;;7.72;61.22
69535;BME280;56754;51.568;5.048;2023-03-03T09:38:55;102638.06;;;7.75;60.94
69535;BME280;56754;51.568;5.048;2023-03-03T09:44:36;102639.41;;;7.78;60.95
69535;BME280;56754;51.568;5.048;2023-03-03T10:04:39;102655.75;;;7.86;60.17
69535;BME280;56754;51.568;5.048;2023-03-03T10:10:16;102656.31;;;7.88;60.43
69535;BME280;56754;51.568;5.048;2023-03-03T10:15:35;102651.31;;;7.92;59.99
69535;BME280;56754;51.568;5.048;2023-03-03T10:20:57;102653.72;;;7.93;60.39
69535;BME280;56754;51.568;5.048;2023-03-03T10:26:18;102655.59;;;7.93;60.17
69535;BME280;56754;51.568;5.048;2023-03-03T10:31:35;102664.38;;;7.93;60.22
69535;BME280;56754;51.568;5.048;2023-03-03T10:36:54;102662.53;;;7.94;59.95
69535;BME280;56754;51.568;5.048;2023-03-03T10:39:45;102650.00;;;7.94;59.83
69535;BME280;56754;51.568;5.048;2023-03-03T10:45:05;102656.44;;;7.98;60.43
69535;BME280;56754;51.568;5.048;2023-03-03T10:53:21;102652.81;;;8.05;60.41
69535;BME280;56754;51.568;5.048;2023-03-03T10:59:21;102641.69;;;8.08;60.44
69535;BME280;56754;51.568;5.048;2023-03-03T11:01:48;102644.06;;;8.09;60.41
69535;BME280;56754;51.568;5.048;2023-03-03T11:04:21;102644.63;;;8.11;60.01
69535;BME280;56754;51.568;5.048;2023-03-03T11:07:11;102643.34;;;8.14;60.25
69535;BME280;56754;51.568;5.048;2023-03-03T11:10:02;102644.94;;;8.15;59.90
69535;BME280;56754;51.568;5.048;2023-03-03T11:12:57;102642.06;;;8.16;59.90
69535;BME280;56754;51.568;5.048;2023-03-03T11:21:30;102634.91;;;8.22;60.33
69535;BME280;56754;51.568;5.048;2023-03-03T11:26:57;102631.72;;;8.25;59.64
69535;BME280;56754;51.568;5.048;2023-03-03T11:38:09;102629.13;;;8.30;59.40
69535;BME280;56754;51.568;5.048;2023-03-03T11:41:02;102630.19;;;8.29;59.69
69535;BME280;56754;51.568;5.048;2023-03-03T11:43:37;102636.09;;;8.31;59.27
69535;BME280;56754;51.568;5.048;2023-03-03T11:46:15;102627.28;;;8.31;59.68
69535;BME280;56754;51.568;5.048;2023-03-03T11:54:26;102630.50;;;8.33;59.64
69535;BME280;56754;51.568;5.048;2023-03-03T11:57:08;102627.03;;;8.32;59.15
69535;BME280;56754;51.568;5.048;2023-03-03T12:00:02;102622.28;;;8.34;59.78
69535;BME280;56754;51.568;5.048;2023-03-03T12:02:33;102615.88;;;8.35;59.49
69535;BME280;56754;51.568;5.048;2023-03-03T12:13:23;102602.88;;;8.39;59.54
69535;BME280;56754;51.568;5.048;2023-03-03T12:16:09;102604.47;;;8.40;59.15
69535;BME280;56754;51.568;5.048;2023-03-03T12:23:56;102600.28;;;8.44;59.70
69535;BME280;56754;51.568;5.048;2023-03-03T12:31:54;102599.56;;;8.54;59.89
69535;BME280;56754;51.568;5.048;2023-03-03T12:39:59;102598.16;;;8.73;59.43
69535;BME280;56754;51.568;5.048;2023-03-03T12:43:12;102591.03;;;8.79;59.27
69535;BME280;56754;51.568;5.048;2023-03-03T12:48:23;102591.38;;;8.93;58.80
69535;BME280;56754;51.568;5.048;2023-03-03T12:53:40;102584.53;;;9.02;58.46
69535;BME280;56754;51.568;5.048;2023-03-03T12:56:11;102583.75;;;9.06;58.47
69535;BME280;56754;51.568;5.048;2023-03-03T13:04:26;102587.09;;;9.24;58.50
69535;BME280;56754;51.568;5.048;2023-03-03T13:07:02;102582.84;;;9.28;58.19
69535;BME280;56754;51.568;5.048;2023-03-03T13:15:02;102585.03;;;9.36;57.63
69535;BME280;56754;51.568;5.048;2023-03-03T13:17:30;102578.09;;;9.40;57.65
69535;BME280;56754;51.568;5.048;2023-03-03T13:20:00;102581.09;;;9.44;57.47
69535;BME280;56754;51.568;5.048;2023-03-03T13:27:39;102572.88;;;9.61;58.00
69535;BME280;56754;51.568;5.048;2023-03-03T13:30:16;102571.84;;;9.67;57.78
69535;BME280;56754;51.568;5.048;2023-03-03T13:33:01;102578.00;;;9.72;57.95
69535;BME280;56754;51.568;5.048;2023-03-03T13:38:05;102566.59;;;9.82;57.74
69535;BME280;56754;51.568;5.048;2023-03-03T13:40:44;102571.94;;;9.82;57.22
69535;BME280;56754;51.568;5.048;2023-03-03T13:43:42;102564.72;;;9.83;57.15
69535;BME280;56754;51.568;5.048;2023-03-03T13:46:27;102567.13;;;9.84;57.25
69535;BME280;56754;51.568;5.048;2023-03-03T14:00:34;102561.06;;;10.09;57.08
69535;BME280;56754;51.568;5.048;2023-03-03T14:17:11;102561.59;;;10.11;57.46
69535;BME280;56754;51.568;5.048;2023-03-03T14:19:43;102552.25;;;10.14;58.16
69535;BME280;56754;51.568;5.048;2023-03-03T14:25:08;102549.06;;;10.12;57.32
69535;BME280;56754;51.568;5.048;2023-03-03T14:30:37;102546.38;;;10.17;57.45
69535;BME280;56754;51.568;5.048;2023-03-03T14:35:42;102546.16;;;10.23;57.24
69535;BME280;56754;51.568;5.048;2023-03-03T14:40:36;102540.81;;;10.23;56.80
69535;BME280;56754;51.568;5.048;2023-03-03T14:43:05;102530.13;;;10.23;57.38
69535;BME280;56754;51.568;5.048;2023-03-03T14:45:43;102533.84;;;10.22;57.35
69535;BME280;56754;51.568;5.048;2023-03-03T14:48:22;102527.97;;;10.20;57.38
69535;BME280;56754;51.568;5.048;2023-03-03T14:50:55;102526.09;;;10.21;57.46
69535;BME280;56754;51.568;5.048;2023-03-03T14:53:36;102529.03;;;10.19;57.49
69535;BME280;56754;51.568;5.048;2023-03-03T14:56:36;102530.09;;;10.18;57.44
69535;BME280;56754;51.568;5.048;2023-03-03T14:59:16;102534.66;;;10.18;57.56
69535;BME280;56754;51.568;5.048;2023-03-03T15:01:43;102527.97;;;10.15;57.34
69535;BME280;56754;51.568;5.048;2023-03-03T15:04:30;102520.19;;;10.14;57.67
69535;BME280;56754;51.568;5.048;2023-03-03T15:06:56;102515.66;;;10.14;57.62
69535;BME280;56754;51.568;5.048;2023-03-03T15:09:33;102520.75;;;10.21;57.48
69535;BME280;56754;51.568;5.048;2023-03-03T15:12:02;102516.78;;;10.29;57.36
69535;BME280;56754;51.568;5.048;2023-03-03T15:14:41;102509.84;;;10.33;57.37
69535;BME280;56754;51.568;5.048;2023-03-03T15:17:28;102506.63;;;10.36;57.36
69535;BME280;56754;51.568;5.048;2023-03-03T15:20:17;102500.22;;;10.42;56.88
69535;BME280;56754;51.568;5.048;2023-03-03T15:22:48;102503.97;;;10.51;56.90
69535;BME280;56754;51.568;5.048;2023-03-03T15:25:21;102499.94;;;10.59;56.96
69535;BME280;56754;51.568;5.048;2023-03-03T15:36:06;102487.63;;;10.88;56.03
69535;BME280;56754;51.568;5.048;2023-03-03T15:38:42;102488.41;;;10.94;55.87
69535;BME280;56754;51.568;5.048;2023-03-03T15:43:55;102489.75;;;10.97;55.78
69535;BME280;56754;51.568;5.048;2023-03-03T15:52:37;102489.50;;;10.93;56.17
69535;BME280;56754;51.568;5.048;2023-03-03T16:06:58;102482.56;;;10.77;56.66
69535;BME280;56754;51.568;5.048;2023-03-03T16:12:54;102495.41;;;10.69;56.73
69535;BME280;56754;51.568;5.048;2023-03-03T16:20:40;102496.22;;;10.60;56.93
69535;BME280;56754;51.568;5.048;2023-03-03T16:23:21;102484.44;;;10.56;57.08
69535;BME280;56754;51.568;5.048;2023-03-03T16:28:50;102492.72;;;10.49;57.18
69535;BME280;56754;51.568;5.048;2023-03-03T16:31:28;102486.31;;;10.45;57.09
69535;BME280;56754;51.568;5.048;2023-03-03T16:34:12;102488.75;;;10.41;57.15
69535;BME280;56754;51.568;5.048;2023-03-03T16:39:12;102495.16;;;10.35;57.21
69535;BME280;56754;51.568;5.048;2023-03-03T16:42:01;102501.28;;;10.31;56.68
69535;BME280;56754;51.568;5.048;2023-03-03T16:44:50;102505.56;;;10.27;56.97
69535;BME280;56754;51.568;5.048;2023-03-03T16:51:10;102506.59;;;10.20;57.24
69535;BME280;56754;51.568;5.048;2023-03-03T16:53:53;102510.59;;;10.18;57.02
69535;BME280;56754;51.568;5.048;2023-03-03T16:56:24;102514.59;;;10.15;57.02
69535;BME280;56754;51.568;5.048;2023-03-03T16:59:19;102505.47;;;10.11;57.06
69535;BME280;56754;51.568;5.048;2023-03-03T17:02:02;102514.56;;;10.10;57.12
69535;BME280;56754;51.568;5.048;2023-03-03T17:04:50;102520.44;;;10.07;57.17
69535;BME280;56754;51.568;5.048;2023-03-03T17:10:04;102523.66;;;10.04;57.36
69535;BME280;56754;51.568;5.048;2023-03-03T17:18:11;102531.41;;;10.00;57.18